Flight Track Log - Related Links

Times and Time Zones

All times are in EST time to prevent confusion due to time zone crossing. See the SKW5631 flight status page for this flight to view local times or setup timezone preferences in your user account.

Time Position Orientation Groundspeed Altitude Reporting Facility
EST Latitude Longitude Course Direction KTS MPH feet Rate Location/Type
Tue 10:17:51 PM 37.6394 -122.3639 135° Southeast 157 181 800  Level Oakland Center
Tue 10:18:56 PM 37.6833 -122.3833 341° North 201 231 2,600 2,016 Climbing Northern Cal TRACON
Tue 10:19:56 PM 37.6667 -122.4333 247° West 225 259 5,000 2,136 Climbing Northern Cal TRACON
Tue 10:20:00 PM 37.3400 -122.0275 130° Southeast  Level Estimated
Tue 10:20:54 PM 37.6089 -122.4519 194° South 263 303 6,800  Level Oakland Center
Tue 10:21:00 PM 37.2467 -121.9122 133° Southeast  Level Estimated
Tue 10:21:55 PM 37.5433 -122.4100 153° Southeast 265 305 9,400  Level Oakland Center
Tue 10:22:00 PM 37.1533 -121.7971 141° Southeast  Level Estimated
Tue 10:22:56 PM 37.4739 -122.3667 154° Southeast 276 318 11,400  Level Oakland Center
Tue 10:23:00 PM 37.0864 -121.7150 135° Southeast  Level Estimated
Tue 10:23:57 PM 37.4033 -122.3094 147° Southeast 296 341 13,500  Level Oakland Center
Tue 10:24:57 PM 37.3258 -122.2228 138° Southeast 310 357 16,300 2,281 Climbing Oakland Center
Tue 10:25:58 PM 37.2628 -122.1528 139° Southeast 306 352 18,100 1,672 Climbing Oakland Center
Tue 10:26:59 PM 37.1958 -122.0808 139° Southeast 315 362 19,700 1,525 Climbing Oakland Center
Tue 10:28:00 PM 37.1261 -122.0058 139° Southeast 328 377 21,200 1,377 Climbing Oakland Center
Tue 10:29:01 PM 37.0550 -121.9278 139° Southeast 339 390 22,500 1,289 Climbing Oakland Center
Tue 10:30:01 PM 36.9797 -121.8478 140° Southeast 351 404 23,800 1,190 Climbing Oakland Center
Tue 10:31:02 PM 36.9042 -121.7678 140° Southeast 357 411 24,900 590 Climbing Oakland Center
Tue 10:32:03 PM 36.8239 -121.6825 140° Southeast 379 436 25,000 49 Climbing Oakland Center
Tue 10:33:04 PM 36.7422 -121.5944 139° Southeast 411 473 25,000 -49 Level Oakland Center
Tue 10:34:05 PM 36.6336 -121.4806 140° Southeast 424 488 24,900  Descending Oakland Center
Tue 10:35:05 PM 36.5472 -121.3875 139° Southeast 416 479 25,000 50 Climbing Oakland Center
Tue 10:36:06 PM 36.4642 -121.2967 139° Southeast 401 461 25,000  Level Oakland Center
Tue 10:37:07 PM 36.3808 -121.2081 139° Southeast 395 455 25,000  Level Oakland Center
Tue 10:38:08 PM 36.2981 -121.1192 139° Southeast 396 456 25,000  Level Oakland Center
Tue 10:39:09 PM 36.2119 -121.0300 140° Southeast 401 461 25,000  Level Oakland Center
Tue 10:40:10 PM 36.1256 -120.9378 139° Southeast 411 473 25,000  Level Oakland Center
Tue 10:41:11 PM 36.0383 -120.8456 139° Southeast 413 475 25,000  Level Oakland Center
Tue 10:42:12 PM 35.9533 -120.7569 140° Southeast 403 464 25,000  Level Oakland Center
Tue 10:43:12 PM 35.8703 -120.6703 140° Southeast 393 452 25,000  Level Oakland Center
Tue 10:44:13 PM 35.7886 -120.5831 139° Southeast 389 448 25,000  Level Oakland Center
Tue 10:45:14 PM 35.7042 -120.4956 140° Southeast 395 455 25,000  Level Oakland Center
Tue 10:46:15 PM 35.6197 -120.4078 140° Southeast 396 456 25,000  Level Oakland Center
Tue 10:47:16 PM 35.5336 -120.3189 140° Southeast 399 459 25,000 -492 Level Oakland Center
Tue 10:48:17 PM 35.4342 -120.2167 140° Southeast 406 467 24,000 -492 Descending Oakland Center
Tue 10:49:18 PM 35.3575 -120.1353 139° Southeast 407 468 24,000  Level Oakland Center
Tue 10:50:19 PM 35.2736 -120.0506 140° Southeast 391 450 24,000  Level Oakland Center
Tue 10:51:20 PM 35.1919 -119.9678 140° Southeast 381 438 24,000  Level Oakland Center
Tue 10:52:21 PM 35.1094 -119.8833 140° Southeast 384 442 24,000  Level Oakland Center
Tue 10:52:58 PM 35.0625 -119.8250 135° Southeast 395 455 24,000  Level Los Angeles Center
Tue 10:54:00 PM 34.9733 -119.7025 132° Southeast 403 464 24,000 -585 Level Los Angeles Center
Tue 10:55:01 PM 34.8972 -119.6000 132° Southeast 406 467 22,800 -1,707 Descending Los Angeles Center
Tue 10:56:03 PM 34.8211 -119.4981 132° Southeast 407 468 20,500 -2,195 Descending Los Angeles Center
Tue 10:57:04 PM 34.7469 -119.3994 132° Southeast 399 459 18,300 -2,098 Descending Los Angeles Center
Tue 10:58:06 PM 34.6753 -119.3094 134° Southeast 377 434 16,200 -2,244 Descending Los Angeles Center
Tue 10:59:07 PM 34.6006 -119.2103 132° Southeast 355 409 13,700 -2,293 Descending Los Angeles Center
Tue 11:00:09 PM 34.5383 -119.1258 132° Southeast 338 389 11,500 -1,317 Descending Los Angeles Center
Tue 11:01:10 PM 34.4811 -119.0469 131° Southeast 301 346 11,000 -683 Descending Los Angeles Center
Tue 11:02:12 PM 34.4258 -118.9750 133° Southeast 292 336 10,100 -1,366 Descending Los Angeles Center
Tue 11:03:13 PM 34.3769 -118.8997 128° Southeast 285 328 8,200 -1,659 Descending Los Angeles Center
Tue 11:04:15 PM 34.3325 -118.8261 126° Southeast 271 312 6,700 -1,756 Descending Los Angeles Center
Tue 11:05:16 PM 34.2750 -118.7819 148° Southeast 244 281 4,600 -1,317 Descending Los Angeles Center
Tue 11:06:18 PM 34.2433 -118.7156 120° Southeast 235 270 4,000 -293 Descending Los Angeles Center
Tue 11:07:19 PM 34.2142 -118.6456 117° Southeast 209 241 4,000 -106 Level Los Angeles Center
Tue 11:08:11 PM 34.2000 -118.6000 111° Southeast 185 213 3,800 -536 Descending Southern California TRACON
Tue 11:09:11 PM 34.2000 -118.5333 90° East 184 212 3,000 -600 Descending Southern California TRACON
Tue 11:10:11 PM 34.2000 -118.4833 90° East 150 173 2,600 -600 Descending Southern California TRACON
Tue 11:11:11 PM 34.2000 -118.4333 90° East 142 163 1,800 -800 Descending Southern California TRACON
Tue 11:12:11 PM 34.2000 -118.3833 90° East 145 167 1,000 -800 Descending Southern California TRACON

Login

Don't have an account? Register now (free) for customized features, flight alerts, and more!